createdAt,value
2023-03-10T00:01:36.332Z,90.22
2023-03-10T00:03:37.805Z,89.78
2023-03-10T00:05:39.788Z,89.83
2023-03-10T00:07:41.324Z,89.65
2023-03-10T00:09:42.962Z,90.29
2023-03-10T00:11:44.619Z,89.83
2023-03-10T00:13:46.183Z,90.20
2023-03-10T00:15:48.648Z,90.07
2023-03-10T00:17:50.301Z,90.30
2023-03-10T00:19:51.777Z,89.63
2023-03-10T00:21:53.682Z,90.02
2023-03-10T00:23:56.063Z,89.62
2023-03-10T00:25:59.740Z,90.05
2023-03-10T00:28:01.236Z,89.71
2023-03-10T00:30:04.059Z,90.05
2023-03-10T00:32:05.960Z,89.79
2023-03-10T00:34:07.453Z,89.35
2023-03-10T00:36:13.485Z,89.48
2023-03-10T00:38:14.998Z,89.83
2023-03-10T00:40:16.740Z,89.79
2023-03-10T00:42:18.794Z,89.41
2023-03-10T00:44:20.275Z,90.21
2023-03-10T00:46:23.107Z,89.77
2023-03-10T00:48:24.687Z,89.46
2023-03-10T00:50:26.155Z,89.40
2023-03-10T00:52:32.810Z,90.07
2023-03-10T00:54:34.324Z,89.47
2023-03-10T00:56:35.821Z,89.80
2023-03-10T00:58:37.541Z,89.69
2023-03-10T01:00:39.046Z,89.72
2023-03-10T01:02:40.556Z,89.82
2023-03-10T01:04:42.102Z,89.77
2023-03-10T01:06:44.593Z,89.97
2023-03-10T01:08:46.216Z,89.94
2023-03-10T01:10:48.217Z,90.27
2023-03-10T01:12:49.700Z,90.16
2023-03-10T01:14:51.189Z,89.60
2023-03-10T01:16:52.914Z,89.90
2023-03-10T01:18:54.866Z,89.85
2023-03-10T01:20:56.317Z,89.48
2023-03-10T01:22:58.686Z,89.76
2023-03-10T01:25:00.151Z,89.45
2023-03-10T01:27:01.642Z,89.80
2023-03-10T01:29:03.279Z,89.95
2023-03-10T01:31:07.678Z,89.51
2023-03-10T01:33:10.202Z,89.88
2023-03-10T01:35:12.041Z,89.83
2023-03-10T01:37:13.518Z,89.96
2023-03-10T01:39:14.988Z,90.04
2023-03-10T01:41:17.127Z,89.58
2023-03-10T01:43:22.110Z,89.68
2023-03-10T01:45:23.506Z,89.37
2023-03-10T01:47:24.947Z,89.35
2023-03-10T01:49:33.656Z,89.65
2023-03-10T01:51:37.288Z,89.88
2023-03-10T01:53:39.474Z,89.28
2023-03-10T01:55:48.316Z,89.33
2023-03-10T01:57:51.642Z,89.67
2023-03-10T01:59:55.375Z,89.62
2023-03-10T02:01:58.464Z,89.66
2023-03-10T02:04:09.223Z,89.84
2023-03-10T02:06:12.502Z,89.65
2023-03-10T02:08:14.816Z,89.60
2023-03-10T02:10:17.147Z,89.89
2023-03-10T02:12:20.373Z,89.61
2023-03-10T02:14:21.894Z,89.60
2023-03-10T02:16:24.186Z,89.63
2023-03-10T02:18:26.185Z,89.79
2023-03-10T02:20:30.696Z,89.80
2023-03-10T02:22:32.929Z,89.46
2023-03-10T02:24:38.803Z,89.63
2023-03-10T02:26:50.223Z,89.71
2023-03-10T02:28:54.430Z,89.34
2023-03-10T02:30:57.250Z,89.64
2023-03-10T02:33:04.579Z,89.73
2023-03-10T02:35:06.605Z,89.75
2023-03-10T02:37:17.100Z,89.45
2023-03-10T02:39:18.577Z,89.45
2023-03-10T02:41:25.002Z,89.76
2023-03-10T02:43:30.085Z,89.45
2023-03-10T02:45:34.924Z,89.59
2023-03-10T02:47:36.437Z,89.39
2023-03-10T02:49:39.648Z,89.64
2023-03-10T02:51:44.228Z,89.69
2023-03-10T02:53:45.702Z,89.35
2023-03-10T02:55:47.642Z,89.32
2023-03-10T02:57:49.127Z,89.26
2023-03-10T02:59:50.621Z,90.11
2023-03-10T03:01:52.086Z,89.43
2023-03-10T03:03:54.120Z,89.75
2023-03-10T03:05:55.688Z,89.93
2023-03-10T03:07:57.161Z,89.36
2023-03-10T03:09:58.658Z,89.87
2023-03-10T03:12:01.307Z,89.32
2023-03-10T03:14:02.858Z,89.84
2023-03-10T03:16:07.331Z,89.93
2023-03-10T03:18:09.704Z,89.61
2023-03-10T03:20:14.090Z,89.69
2023-03-10T03:22:15.588Z,90.07
2023-03-10T03:24:18.766Z,89.93
2023-03-10T03:26:23.271Z,89.77
2023-03-10T03:28:24.759Z,89.41
2023-03-10T03:30:28.052Z,89.60
2023-03-10T03:32:29.560Z,89.43
2023-03-10T03:34:31.058Z,89.82
2023-03-10T03:36:32.768Z,89.89
2023-03-10T03:38:34.880Z,89.40
2023-03-10T03:40:37.579Z,89.40
2023-03-10T03:42:40.400Z,89.69
2023-03-10T03:44:41.938Z,89.67
2023-03-10T03:46:43.401Z,89.37
2023-03-10T03:48:44.845Z,89.73
2023-03-10T03:50:48.073Z,89.47
2023-03-10T03:52:50.149Z,89.49
2023-03-10T03:54:51.765Z,89.62
2023-03-10T03:56:53.274Z,89.96
2023-03-10T03:58:55.074Z,89.77
2023-03-10T04:00:56.646Z,89.91
2023-03-10T04:02:58.114Z,89.80
2023-03-10T04:04:59.578Z,89.73
2023-03-10T04:07:01.652Z,89.46
2023-03-10T04:09:03.774Z,89.90
2023-03-10T04:11:05.382Z,90.10
2023-03-10T04:13:06.882Z,89.79
2023-03-10T04:15:09.126Z,89.92
2023-03-10T04:17:12.248Z,90.06
2023-03-10T04:19:14.287Z,89.83
2023-03-10T04:21:17.491Z,89.74
2023-03-10T04:23:18.977Z,89.98
2023-03-10T04:25:20.442Z,90.04
2023-03-10T04:27:21.895Z,89.54
2023-03-10T04:29:24.527Z,89.88
2023-03-10T04:31:26.469Z,89.69
2023-03-10T04:33:28.068Z,90.02
2023-03-10T04:35:29.596Z,90.00
2023-03-10T04:37:31.053Z,90.05
2023-03-10T04:39:32.528Z,89.91
2023-03-10T04:41:34.010Z,90.21
2023-03-10T04:43:36.297Z,89.86
2023-03-10T04:45:37.788Z,90.00
2023-03-10T04:47:39.803Z,90.09
2023-03-10T04:49:41.440Z,89.99
2023-03-10T04:51:42.947Z,90.01
2023-03-10T04:53:44.416Z,90.19
2023-03-10T04:55:45.889Z,90.38
2023-03-10T04:57:47.411Z,90.29
2023-03-10T04:59:48.889Z,90.20
2023-03-10T05:01:52.381Z,89.86
2023-03-10T05:03:54.062Z,89.97
2023-03-10T05:05:55.728Z,90.18
2023-03-10T05:07:57.189Z,90.32
2023-03-10T05:09:58.665Z,90.42
2023-03-10T05:12:00.117Z,89.75
2023-03-10T05:14:01.725Z,90.00
2023-03-10T05:16:03.576Z,90.30
2023-03-10T05:18:05.526Z,90.32
2023-03-10T05:20:09.551Z,90.20
2023-03-10T05:22:12.391Z,90.27
2023-03-10T05:24:13.954Z,90.17
2023-03-10T05:26:15.799Z,89.97
2023-03-10T05:28:17.399Z,89.64
2023-03-10T05:30:18.986Z,89.96
2023-03-10T05:32:20.631Z,89.68
2023-03-10T05:34:23.812Z,89.95
2023-03-10T05:36:25.405Z,90.15
2023-03-10T05:38:26.853Z,90.19
2023-03-10T05:40:28.309Z,89.52
2023-03-10T05:42:29.905Z,89.90
2023-03-10T05:44:31.735Z,90.10
2023-03-10T05:46:33.304Z,89.88
2023-03-10T05:48:35.217Z,89.95
2023-03-10T05:50:36.755Z,89.98
2023-03-10T05:52:39.966Z,89.42
2023-03-10T05:54:41.431Z,89.84
2023-03-10T05:56:42.970Z,89.78
2023-03-10T05:58:45.513Z,89.44
2023-03-10T06:00:47.211Z,89.65
2023-03-10T06:02:48.735Z,89.34
2023-03-10T06:04:50.226Z,89.24
2023-03-10T06:06:51.701Z,89.19
2023-03-10T06:08:53.157Z,89.48
2023-03-10T06:10:55.633Z,89.48
2023-03-10T06:12:57.265Z,89.65
2023-03-10T06:15:11.090Z,89.50
2023-03-10T06:17:12.575Z,89.10
2023-03-10T06:19:14.051Z,89.56
2023-03-10T06:21:15.604Z,89.30
2023-03-10T06:23:18.092Z,88.93
2023-03-10T06:25:20.709Z,89.09
2023-03-10T06:27:22.216Z,89.30
2023-03-10T06:29:23.764Z,89.09
2023-03-10T06:31:25.571Z,88.89
2023-03-10T06:33:28.323Z,89.29
2023-03-10T06:35:31.587Z,88.93
2023-03-10T06:37:33.169Z,89.46
2023-03-10T06:39:38.058Z,89.16
2023-03-10T06:41:39.555Z,89.42
2023-03-10T06:43:41.117Z,88.77
2023-03-10T06:45:44.521Z,88.94
2023-03-10T06:47:46.070Z,89.09
2023-03-10T06:49:47.535Z,88.89
2023-03-10T06:51:48.973Z,89.03
2023-03-10T06:53:50.766Z,88.67
2023-03-10T06:56:06.589Z,88.75
2023-03-10T06:58:08.142Z,89.16
2023-03-10T07:00:11.969Z,88.50
2023-03-10T07:02:13.480Z,88.75
2023-03-10T07:04:14.950Z,89.08
2023-03-10T07:06:16.446Z,88.87
2023-03-10T07:08:17.998Z,88.72
2023-03-10T07:10:19.693Z,89.31
2023-03-10T07:12:21.187Z,88.74
2023-03-10T07:14:22.682Z,89.22
2023-03-10T07:16:24.582Z,88.58
2023-03-10T07:18:29.682Z,88.90
2023-03-10T07:20:31.183Z,88.72
2023-03-10T07:22:32.642Z,89.15
2023-03-10T07:24:34.094Z,89.14
2023-03-10T07:26:35.586Z,89.27
2023-03-10T07:28:37.965Z,88.92
2023-03-10T07:30:39.923Z,89.06
2023-03-10T07:32:41.855Z,89.25
2023-03-10T07:34:43.373Z,88.58
2023-03-10T07:36:44.808Z,88.90
2023-03-10T07:38:46.888Z,89.06
2023-03-10T07:40:48.347Z,89.01
2023-03-10T07:42:49.846Z,89.26
2023-03-10T07:44:51.378Z,89.28
2023-03-10T07:46:52.968Z,88.96
2023-03-10T07:48:55.620Z,88.98
2023-03-10T07:50:58.672Z,88.94
2023-03-10T07:53:00.215Z,88.46
2023-03-10T07:55:01.679Z,89.06
2023-03-10T07:57:03.242Z,88.75
2023-03-10T07:59:04.814Z,88.96
2023-03-10T08:01:07.820Z,88.32
2023-03-10T08:03:09.333Z,88.45
2023-03-10T08:05:11.461Z,88.45
2023-03-10T08:07:13.048Z,88.78
2023-03-10T08:09:14.510Z,88.47
2023-03-10T08:11:16.716Z,88.29
2023-03-10T08:13:18.262Z,88.62
2023-03-10T08:15:19.727Z,88.17
2023-03-10T08:17:21.248Z,88.15
2023-03-10T08:19:27.044Z,88.07
2023-03-10T08:21:28.506Z,87.58
2023-03-10T08:23:30.036Z,87.77
2023-03-10T08:25:31.534Z,87.45
2023-03-10T08:27:33.022Z,87.51
2023-03-10T08:29:34.531Z,87.39
2023-03-10T08:31:36.441Z,87.36
2023-03-10T08:33:39.930Z,87.71
2023-03-10T08:35:41.599Z,86.78
2023-03-10T08:37:43.609Z,86.64
2023-03-10T08:39:46.463Z,86.51
2023-03-10T08:41:49.037Z,86.65
2023-03-10T08:43:53.407Z,86.23
2023-03-10T08:45:54.881Z,86.44
2023-03-10T08:47:56.331Z,85.90
2023-03-10T08:49:57.822Z,86.30
2023-03-10T08:52:00.337Z,85.52
2023-03-10T08:54:02.406Z,85.29
2023-03-10T08:56:05.249Z,84.90
2023-03-10T08:58:06.735Z,85.31
2023-03-10T09:00:12.424Z,85.20
2023-03-10T09:02:15.296Z,85.02
2023-03-10T09:04:16.855Z,85.01
2023-03-10T09:06:19.147Z,84.64
2023-03-10T09:08:20.923Z,84.66
2023-03-10T09:10:22.397Z,84.32
2023-03-10T09:12:23.853Z,83.71
2023-03-10T09:14:25.849Z,83.75
2023-03-10T09:16:28.917Z,83.89
2023-03-10T09:18:30.454Z,83.83
2023-03-10T09:20:31.919Z,83.91
2023-03-10T09:22:33.370Z,83.95
2023-03-10T09:24:34.873Z,83.38
2023-03-10T09:26:36.400Z,83.41
2023-03-10T09:28:38.031Z,83.34
2023-03-10T09:30:41.385Z,83.18
2023-03-10T09:32:44.792Z,83.13
2023-03-10T09:34:46.347Z,82.96
2023-03-10T09:36:47.894Z,83.24
2023-03-10T09:38:49.408Z,82.85
2023-03-10T09:41:03.381Z,83.10
2023-03-10T09:43:07.109Z,83.10
2023-03-10T09:45:41.303Z,83.06
2023-03-10T09:47:55.284Z,82.57
2023-03-10T09:50:24.806Z,82.93
2023-03-10T09:52:46.112Z,83.34
2023-03-10T09:55:47.854Z,83.48
2023-03-10T09:57:52.861Z,83.34
2023-03-10T09:59:59.185Z,83.23
2023-03-10T10:02:03.953Z,82.77
2023-03-10T10:04:11.655Z,83.29
2023-03-10T10:06:42.317Z,83.15
2023-03-10T10:09:01.830Z,83.28
2023-03-10T10:11:09.670Z,82.80
2023-03-10T10:13:16.506Z,82.43
2023-03-10T10:15:22.346Z,82.41
2023-03-10T10:17:29.540Z,82.52
2023-03-10T10:19:33.108Z,82.30
2023-03-10T10:21:56.441Z,82.06
2023-03-10T10:23:59.356Z,82.61
2023-03-10T10:26:09.746Z,82.56
2023-03-10T10:28:20.215Z,82.76
2023-03-10T10:30:33.145Z,82.14
2023-03-10T10:32:34.712Z,82.54
2023-03-10T10:34:38.494Z,82.21
2023-03-10T10:36:52.028Z,82.00
2023-03-10T10:38:55.561Z,82.29
2023-03-10T10:41:07.709Z,82.31
2023-03-10T10:43:16.921Z,82.03
2023-03-10T10:45:44.494Z,82.39
2023-03-10T10:47:51.057Z,82.17
2023-03-10T10:49:53.705Z,82.56
2023-03-10T10:52:01.760Z,82.05
2023-03-10T10:54:19.432Z,82.17
2023-03-10T10:56:21.832Z,82.44
2023-03-10T10:58:38.735Z,82.77
2023-03-10T11:00:40.369Z,82.74
2023-03-10T11:02:41.886Z,83.15
2023-03-10T11:04:46.322Z,83.05
2023-03-10T11:06:48.508Z,83.06
2023-03-10T11:08:53.513Z,83.09
2023-03-10T11:11:02.009Z,83.14
2023-03-10T11:13:17.784Z,83.92
2023-03-10T11:15:26.330Z,83.94
2023-03-10T11:17:42.936Z,84.29
2023-03-10T11:19:59.685Z,84.65
2023-03-10T11:22:14.210Z,84.45
2023-03-10T11:24:36.344Z,84.83
2023-03-10T11:27:01.945Z,84.32
2023-03-10T11:29:13.436Z,84.24
2023-03-10T11:31:28.873Z,83.67
2023-03-10T11:33:50.405Z,83.69
2023-03-10T11:36:15.704Z,83.35
2023-03-10T11:38:39.014Z,83.65
2023-03-10T11:40:51.542Z,83.52
2023-03-10T11:43:00.694Z,83.70
2023-03-10T11:45:02.235Z,83.99
2023-03-10T11:47:21.423Z,83.92
2023-03-10T11:49:27.263Z,83.81
2023-03-10T11:51:47.983Z,84.03
2023-03-10T11:53:53.104Z,84.65
2023-03-10T11:55:55.899Z,84.34
2023-03-10T11:58:01.178Z,84.67
2023-03-10T12:00:07.802Z,84.86
2023-03-10T12:02:26.872Z,84.75
2023-03-10T12:04:36.438Z,85.29
2023-03-10T12:06:52.551Z,85.53
2023-03-10T12:08:55.911Z,85.39
2023-03-10T12:11:01.307Z,85.48
2023-03-10T12:13:04.362Z,85.44
2023-03-10T12:15:16.204Z,85.56
2023-03-10T12:17:17.854Z,85.63
2023-03-10T12:19:19.668Z,84.66
2023-03-10T12:21:28.118Z,84.24
2023-03-10T12:23:36.642Z,84.71
2023-03-10T12:25:38.425Z,84.49
2023-03-10T12:28:13.462Z,85.30
2023-03-10T12:30:46.390Z,85.22
2023-03-10T12:32:48.218Z,85.06
2023-03-10T12:35:22.453Z,85.04
2023-03-10T12:37:24.009Z,85.15
2023-03-10T12:39:28.256Z,85.54
2023-03-10T12:41:29.656Z,86.04
2023-03-10T12:43:43.028Z,85.94
2023-03-10T12:45:45.835Z,85.86
2023-03-10T12:48:03.187Z,85.87
2023-03-10T12:50:44.364Z,85.63
2023-03-10T12:52:59.360Z,85.49
2023-03-10T12:55:24.728Z,85.54
2023-03-10T12:57:47.124Z,85.65
2023-03-10T13:00:00.926Z,86.21
2023-03-10T13:02:04.618Z,86.22
2023-03-10T13:04:08.084Z,86.79
2023-03-10T13:06:18.703Z,86.52
2023-03-10T13:08:24.966Z,86.65
2023-03-10T13:10:30.928Z,86.54
2023-03-10T13:12:48.881Z,86.28
2023-03-10T13:14:59.037Z,86.26
2023-03-10T13:17:01.626Z,85.93
2023-03-10T13:19:04.292Z,86.20
2023-03-10T13:21:06.010Z,87.06
2023-03-10T13:23:20.697Z,86.33
2023-03-10T13:25:22.410Z,86.71
2023-03-10T13:27:28.870Z,86.24
2023-03-10T13:29:30.570Z,86.29
2023-03-10T13:31:33.552Z,86.30
2023-03-10T13:33:43.009Z,86.46
2023-03-10T13:35:48.406Z,86.41
2023-03-10T13:38:13.720Z,86.33
2023-03-10T13:40:17.112Z,86.74
2023-03-10T13:42:40.746Z,86.91
2023-03-10T13:44:44.808Z,87.04
2023-03-10T13:47:16.813Z,87.11
2023-03-10T13:49:20.263Z,87.03
2023-03-10T13:51:32.076Z,86.88
2023-03-10T13:53:34.026Z,87.25
2023-03-10T13:55:41.445Z,86.94
2023-03-10T13:57:44.773Z,87.37
2023-03-10T13:59:47.823Z,87.14
2023-03-10T14:01:53.670Z,87.68
2023-03-10T14:03:56.777Z,87.29
2023-03-10T14:05:58.280Z,87.58
2023-03-10T14:08:00.870Z,87.75
2023-03-10T14:10:05.192Z,88.20
2023-03-10T14:12:08.433Z,87.79
2023-03-10T14:14:11.677Z,87.45
2023-03-10T14:16:13.671Z,87.91
2023-03-10T14:18:17.207Z,87.70
2023-03-10T14:20:27.840Z,87.76
2023-03-10T14:22:37.810Z,87.55
2023-03-10T14:24:39.306Z,87.41
2023-03-10T14:26:41.515Z,87.75
2023-03-10T14:28:43.050Z,87.89
2023-03-10T14:30:44.647Z,87.84
2023-03-10T14:32:46.724Z,87.79
2023-03-10T14:34:48.816Z,87.25
2023-03-10T14:36:50.278Z,87.85
2023-03-10T14:38:51.789Z,87.65
2023-03-10T14:40:54.990Z,88.12
2023-03-10T14:43:00.339Z,87.92
2023-03-10T14:45:08.285Z,88.14
2023-03-10T14:47:09.901Z,88.24
2023-03-10T14:49:15.222Z,87.84
2023-03-10T14:51:32.686Z,88.34
2023-03-10T14:53:36.353Z,88.01
2023-03-10T14:55:39.055Z,87.80
2023-03-10T14:57:41.233Z,87.94
2023-03-10T14:59:42.727Z,88.01
2023-03-10T15:01:44.565Z,88.57
2023-03-10T15:03:48.964Z,88.12
2023-03-10T15:05:50.481Z,88.13
2023-03-10T15:07:52.062Z,88.65
2023-03-10T15:10:08.847Z,88.51
2023-03-10T15:12:17.834Z,89.12
2023-03-10T15:14:19.580Z,88.89
2023-03-10T15:16:21.074Z,89.17
2023-03-10T15:18:23.765Z,88.82
2023-03-10T15:20:25.307Z,89.43
2023-03-10T15:22:26.792Z,89.49
2023-03-10T15:24:28.241Z,89.34
2023-03-10T15:26:29.684Z,89.48
2023-03-10T15:28:31.245Z,89.41
2023-03-10T15:30:35.766Z,89.24
2023-03-10T15:32:37.270Z,89.24
2023-03-10T15:34:38.728Z,89.03
2023-03-10T15:36:40.398Z,88.59
2023-03-10T15:38:41.903Z,89.01
2023-03-10T15:40:43.705Z,89.09
2023-03-10T15:42:46.169Z,88.90
2023-03-10T15:44:48.562Z,88.70
2023-03-10T15:46:55.010Z,89.18
2023-03-10T15:48:56.725Z,88.65
2023-03-10T15:50:58.365Z,89.04
2023-03-10T15:53:00.563Z,89.10
2023-03-10T15:55:02.338Z,89.25
2023-03-10T15:57:03.941Z,88.73
2023-03-10T15:59:07.480Z,88.98
2023-03-10T16:01:12.027Z,88.91
2023-03-10T16:03:17.748Z,88.67
2023-03-10T16:05:20.197Z,89.25
2023-03-10T16:07:21.646Z,88.89
2023-03-10T16:09:23.091Z,88.97
2023-03-10T16:11:24.648Z,89.20
2023-03-10T16:13:26.181Z,88.93
2023-03-10T16:15:27.712Z,88.94
2023-03-10T16:17:29.642Z,89.40
2023-03-10T16:19:31.146Z,89.21
2023-03-10T16:21:32.653Z,89.58
2023-03-10T16:23:34.371Z,89.25
2023-03-10T16:25:35.891Z,89.17
2023-03-10T16:27:37.404Z,89.53
2023-03-10T16:29:40.375Z,89.52
2023-03-10T16:31:43.031Z,89.05
2023-03-10T16:33:46.061Z,89.61
2023-03-10T16:35:47.574Z,89.63
2023-03-10T16:37:49.043Z,89.28
2023-03-10T16:39:54.508Z,89.81
2023-03-10T16:41:55.973Z,89.42
2023-03-10T16:43:57.550Z,89.34
2023-03-10T16:46:15.701Z,89.53
2023-03-10T16:48:18.888Z,89.63
2023-03-10T16:50:20.354Z,89.64
2023-03-10T16:52:21.812Z,89.84
2023-03-10T16:54:23.280Z,89.40
2023-03-10T16:56:26.233Z,89.85
2023-03-10T16:58:27.744Z,89.82
2023-03-10T17:00:29.340Z,90.16
2023-03-10T17:02:30.923Z,89.73
2023-03-10T17:04:33.129Z,89.96
2023-03-10T17:06:34.632Z,89.82
2023-03-10T17:08:37.200Z,90.07
2023-03-10T17:10:38.668Z,89.76
2023-03-10T17:12:40.142Z,89.55
2023-03-10T17:14:43.233Z,90.21
2023-03-10T17:16:45.465Z,90.17
2023-03-10T17:18:47.017Z,90.27
2023-03-10T17:20:48.617Z,90.02
2023-03-10T17:22:50.056Z,90.24
2023-03-10T17:24:56.626Z,90.51
2023-03-10T17:26:58.211Z,90.38
2023-03-10T17:28:59.962Z,90.63
2023-03-10T17:31:12.534Z,90.60
2023-03-10T17:33:14.092Z,90.67
2023-03-10T17:35:15.561Z,90.44
2023-03-10T17:37:17.049Z,90.53
2023-03-10T17:39:21.256Z,90.46
2023-03-10T17:41:23.803Z,90.84
2023-03-10T17:43:34.273Z,90.63
2023-03-10T17:45:36.043Z,91.00
2023-03-10T17:47:37.585Z,90.51
2023-03-10T17:49:40.506Z,90.32
2023-03-10T17:51:44.212Z,90.21
2023-03-10T17:53:46.184Z,90.78
2023-03-10T17:55:47.778Z,90.25
2023-03-10T17:57:49.216Z,90.79
2023-03-10T17:59:51.296Z,90.85
2023-03-10T18:01:52.974Z,90.46
2023-03-10T18:03:56.280Z,90.61
2023-03-10T18:05:57.842Z,91.00
2023-03-10T18:07:59.795Z,90.52
2023-03-10T18:10:01.334Z,90.46
2023-03-10T18:12:02.852Z,90.54
2023-03-10T18:14:05.715Z,90.33
2023-03-10T18:16:14.226Z,90.85
2023-03-10T18:18:15.710Z,90.93
2023-03-10T18:20:17.328Z,90.46
2023-03-10T18:22:18.880Z,90.61
2023-03-10T18:24:20.373Z,90.90
2023-03-10T18:26:25.088Z,90.76
2023-03-10T18:28:26.781Z,91.13
2023-03-10T18:30:28.271Z,91.18
2023-03-10T18:32:30.455Z,91.08
2023-03-10T18:34:31.937Z,90.95
2023-03-10T18:36:33.662Z,90.51
2023-03-10T18:38:35.189Z,90.78
2023-03-10T18:40:36.733Z,91.10
2023-03-10T18:42:38.170Z,91.18
2023-03-10T18:44:39.735Z,91.21
2023-03-10T18:46:41.216Z,92.24
2023-03-10T18:48:42.888Z,92.92
2023-03-10T18:50:44.364Z,92.83
2023-03-10T18:52:46.117Z,93.57
2023-03-10T18:54:48.323Z,93.19
2023-03-10T18:56:50.044Z,93.50
2023-03-10T18:58:51.529Z,93.43
2023-03-10T19:00:53.050Z,92.93
2023-03-10T19:02:54.630Z,93.67
2023-03-10T19:04:59.478Z,94.14
2023-03-10T19:07:01.002Z,94.51
2023-03-10T19:09:02.778Z,94.30
2023-03-10T19:11:05.144Z,95.02
2023-03-10T19:13:08.485Z,94.89
2023-03-10T19:15:13.018Z,95.28
2023-03-10T19:17:14.989Z,94.71
2023-03-10T19:19:16.924Z,94.65
2023-03-10T19:21:18.430Z,95.25
2023-03-10T19:23:19.886Z,95.70
2023-03-10T19:25:23.168Z,96.73
2023-03-10T19:27:24.698Z,96.86
2023-03-10T19:29:26.191Z,97.11
2023-03-10T19:31:27.926Z,96.73
2023-03-10T19:33:29.494Z,96.76
2023-03-10T19:35:31.186Z,96.54
2023-03-10T19:37:32.678Z,97.14
2023-03-10T19:39:34.137Z,97.72
2023-03-10T19:41:35.662Z,98.09
2023-03-10T19:43:37.517Z,97.75
2023-03-10T19:45:39.041Z,98.01
2023-03-10T19:47:41.688Z,97.66
2023-03-10T19:49:43.309Z,97.54
2023-03-10T19:51:44.876Z,97.24
2023-03-10T19:53:46.382Z,97.60
2023-03-10T19:56:00.105Z,96.43
2023-03-10T19:58:01.551Z,95.94
2023-03-10T20:00:05.926Z,94.74
2023-03-10T20:02:13.086Z,94.62
2023-03-10T20:04:15.454Z,94.10
2023-03-10T20:06:17.234Z,93.11
2023-03-10T20:08:19.054Z,93.48
2023-03-10T20:10:20.641Z,94.07
2023-03-10T20:12:22.411Z,93.77
2023-03-10T20:14:25.026Z,94.07
2023-03-10T20:16:27.890Z,93.99
2023-03-10T20:18:29.613Z,93.90
2023-03-10T20:20:31.678Z,93.85
2023-03-10T20:22:33.138Z,93.50
2023-03-10T20:24:35.170Z,93.38
2023-03-10T20:26:36.646Z,93.09
2023-03-10T20:28:39.713Z,92.82
2023-03-10T20:30:41.469Z,92.31
2023-03-10T20:32:43.750Z,92.18
2023-03-10T20:34:45.243Z,92.39
2023-03-10T20:36:46.839Z,92.10
2023-03-10T20:38:48.328Z,93.08
2023-03-10T20:40:49.877Z,93.16
2023-03-10T20:42:53.508Z,93.33
2023-03-10T20:44:55.022Z,93.45
2023-03-10T20:46:56.486Z,93.38
2023-03-10T20:48:58.011Z,93.18
2023-03-10T20:51:00.554Z,93.46
2023-03-10T20:53:02.417Z,93.90
2023-03-10T20:55:06.376Z,94.10
2023-03-10T20:57:08.596Z,94.02
2023-03-10T20:59:10.868Z,94.78
2023-03-10T21:01:18.597Z,95.68
2023-03-10T21:03:21.494Z,96.36
2023-03-10T21:05:27.451Z,96.57
2023-03-10T21:07:28.906Z,97.07
2023-03-10T21:09:30.349Z,97.62
2023-03-10T21:11:34.050Z,98.72
2023-03-10T21:13:35.576Z,98.47
2023-03-10T21:15:38.562Z,98.80
2023-03-10T21:17:40.136Z,99.43
2023-03-10T21:19:41.593Z,99.34
2023-03-10T21:21:43.277Z,99.72
2023-03-10T21:23:44.763Z,99.53
2023-03-10T21:25:46.267Z,100.00
2023-03-10T21:27:49.665Z,100.00
2023-03-10T21:29:51.407Z,100.00
2023-03-10T21:31:52.886Z,100.00
2023-03-10T21:33:54.381Z,100.00
2023-03-10T21:35:57.062Z,100.00
2023-03-10T21:37:59.367Z,100.00
2023-03-10T21:40:00.832Z,100.00
2023-03-10T21:42:02.318Z,100.00
2023-03-10T21:44:04.023Z,100.00
2023-03-10T21:46:06.463Z,100.00
2023-03-10T21:48:08.375Z,100.00
2023-03-10T21:50:11.608Z,100.00
2023-03-10T21:52:13.184Z,100.00
2023-03-10T21:54:14.975Z,100.00
2023-03-10T21:56:19.835Z,100.00
2023-03-10T21:58:23.461Z,100.00
2023-03-10T22:00:24.974Z,100.00
2023-03-10T22:02:30.563Z,100.00
2023-03-10T22:04:32.895Z,100.00
2023-03-10T22:06:34.617Z,100.00
2023-03-10T22:08:37.697Z,100.00
2023-03-10T22:10:39.270Z,100.00
2023-03-10T22:12:40.740Z,100.00
2023-03-10T22:14:42.390Z,100.00
2023-03-10T22:16:43.869Z,100.00
2023-03-10T22:18:46.024Z,100.00
2023-03-10T22:20:47.479Z,100.00
2023-03-10T22:22:49.669Z,100.00
2023-03-10T22:24:51.195Z,100.00
2023-03-10T22:26:52.701Z,100.00
2023-03-10T22:28:54.444Z,100.00
2023-03-10T22:30:56.081Z,100.00
2023-03-10T22:32:57.988Z,100.00
2023-03-10T22:34:59.646Z,100.00
2023-03-10T22:37:01.094Z,100.00
2023-03-10T22:39:02.607Z,100.00
2023-03-10T22:41:09.337Z,100.00
2023-03-10T22:43:10.828Z,100.00
2023-03-10T22:45:27.990Z,100.00
2023-03-10T22:47:29.437Z,100.00
2023-03-10T22:49:31.271Z,100.00
2023-03-10T22:51:33.099Z,100.00
2023-03-10T22:53:36.807Z,100.00
2023-03-10T22:55:39.361Z,100.00
2023-03-10T22:57:40.869Z,100.00
2023-03-10T22:59:42.395Z,100.00
2023-03-10T23:01:44.227Z,100.00
2023-03-10T23:03:45.771Z,100.00
2023-03-10T23:05:47.745Z,100.00
2023-03-10T23:07:49.554Z,100.00
2023-03-10T23:09:51.033Z,100.00
2023-03-10T23:11:52.483Z,100.00
2023-03-10T23:13:54.116Z,100.00
2023-03-10T23:15:55.628Z,100.00
2023-03-10T23:17:57.640Z,100.00
2023-03-10T23:19:59.621Z,100.00
2023-03-10T23:22:01.328Z,100.00
2023-03-10T23:24:03.062Z,100.00
2023-03-10T23:26:04.814Z,100.00
2023-03-10T23:28:08.424Z,100.00
2023-03-10T23:30:10.847Z,100.00
2023-03-10T23:32:12.380Z,100.00
2023-03-10T23:34:13.932Z,100.00
2023-03-10T23:36:15.579Z,100.00
2023-03-10T23:38:17.183Z,100.00
2023-03-10T23:40:20.794Z,100.00
2023-03-10T23:42:22.274Z,100.00
2023-03-10T23:44:23.793Z,100.00
2023-03-10T23:46:25.345Z,100.00
2023-03-10T23:48:26.936Z,100.00
2023-03-10T23:50:30.820Z,100.00
2023-03-10T23:52:32.785Z,100.00
2023-03-10T23:54:34.372Z,100.00
2023-03-10T23:56:35.819Z,100.00
2023-03-10T23:58:37.386Z,100.00
